sensor_id;sensor_type;location;lat;lon;timestamp;P1;durP1;ratioP1;P2;durP2;ratioP2
52516;SDS011;59374;53.210;5.726;2022-09-09T00:09:46;13.25;;;7.20;;
52516;SDS011;59374;53.210;5.726;2022-09-09T00:12:20;10.05;;;7.97;;
52516;SDS011;59374;53.210;5.726;2022-09-09T00:15:13;10.73;;;7.03;;
52516;SDS011;59374;53.210;5.726;2022-09-09T00:27:58;10.43;;;7.53;;
52516;SDS011;59374;53.210;5.726;2022-09-09T00:30:24;12.43;;;7.60;;
52516;SDS011;59374;53.210;5.726;2022-09-09T00:33:00;13.63;;;8.50;;
52516;SDS011;59374;53.210;5.726;2022-09-09T00:35:37;10.90;;;7.93;;
52516;SDS011;59374;53.210;5.726;2022-09-09T00:38:10;12.65;;;8.13;;
52516;SDS011;59374;53.210;5.726;2022-09-09T00:43:28;11.82;;;8.00;;
52516;SDS011;59374;53.210;5.726;2022-09-09T00:46:02;11.77;;;7.88;;
52516;SDS011;59374;53.210;5.726;2022-09-09T00:48:50;14.00;;;8.88;;
52516;SDS011;59374;53.210;5.726;2022-09-09T00:51:56;12.35;;;7.53;;
52516;SDS011;59374;53.210;5.726;2022-09-09T00:54:57;9.60;;;7.32;;
52516;SDS011;59374;53.210;5.726;2022-09-09T00:57:30;11.55;;;8.38;;
52516;SDS011;59374;53.210;5.726;2022-09-09T00:59:58;14.85;;;8.13;;
52516;SDS011;59374;53.210;5.726;2022-09-09T01:02:53;15.45;;;8.50;;
52516;SDS011;59374;53.210;5.726;2022-09-09T01:08:05;12.48;;;7.82;;
52516;SDS011;59374;53.210;5.726;2022-09-09T01:10:47;10.20;;;7.72;;
52516;SDS011;59374;53.210;5.726;2022-09-09T01:13:19;11.73;;;8.43;;
52516;SDS011;59374;53.210;5.726;2022-09-09T01:15:51;12.57;;;9.23;;
52516;SDS011;59374;53.210;5.726;2022-09-09T01:18:19;12.13;;;8.18;;
52516;SDS011;59374;53.210;5.726;2022-09-09T01:20:54;11.68;;;7.80;;
52516;SDS011;59374;53.210;5.726;2022-09-09T01:29:00;11.65;;;7.88;;
52516;SDS011;59374;53.210;5.726;2022-09-09T01:31:27;14.40;;;8.35;;
52516;SDS011;59374;53.210;5.726;2022-09-09T01:33:56;11.35;;;7.65;;
52516;SDS011;59374;53.210;5.726;2022-09-09T01:39:10;13.38;;;8.60;;
52516;SDS011;59374;53.210;5.726;2022-09-09T01:41:36;11.32;;;8.93;;
52516;SDS011;59374;53.210;5.726;2022-09-09T01:44:03;11.43;;;8.23;;
52516;SDS011;59374;53.210;5.726;2022-09-09T01:46:29;11.05;;;7.68;;
52516;SDS011;59374;53.210;5.726;2022-09-09T01:48:54;11.23;;;8.02;;
52516;SDS011;59374;53.210;5.726;2022-09-09T01:51:21;11.50;;;8.07;;
52516;SDS011;59374;53.210;5.726;2022-09-09T01:53:47;10.07;;;7.90;;
52516;SDS011;59374;53.210;5.726;2022-09-09T02:02:17;11.10;;;8.27;;
52516;SDS011;59374;53.210;5.726;2022-09-09T02:04:45;10.60;;;8.00;;
52516;SDS011;59374;53.210;5.726;2022-09-09T02:09:58;9.43;;;7.25;;
52516;SDS011;59374;53.210;5.726;2022-09-09T02:12:45;13.55;;;8.50;;
52516;SDS011;59374;53.210;5.726;2022-09-09T02:15:23;13.02;;;8.52;;
52516;SDS011;59374;53.210;5.726;2022-09-09T02:17:55;12.65;;;7.85;;
52516;SDS011;59374;53.210;5.726;2022-09-09T02:20:23;11.45;;;7.85;;
52516;SDS011;59374;53.210;5.726;2022-09-09T02:22:52;11.20;;;7.45;;
52516;SDS011;59374;53.210;5.726;2022-09-09T02:25:19;14.60;;;8.90;;
52516;SDS011;59374;53.210;5.726;2022-09-09T02:27:48;11.38;;;7.25;;
52516;SDS011;59374;53.210;5.726;2022-09-09T02:30:16;11.45;;;8.10;;
52516;SDS011;59374;53.210;5.726;2022-09-09T02:32:43;11.48;;;8.27;;
52516;SDS011;59374;53.210;5.726;2022-09-09T02:35:15;12.43;;;7.72;;
52516;SDS011;59374;53.210;5.726;2022-09-09T02:37:45;14.18;;;8.98;;
52516;SDS011;59374;53.210;5.726;2022-09-09T02:40:12;11.45;;;8.20;;
52516;SDS011;59374;53.210;5.726;2022-09-09T02:42:41;12.45;;;8.20;;
52516;SDS011;59374;53.210;5.726;2022-09-09T02:45:08;15.00;;;8.75;;
52516;SDS011;59374;53.210;5.726;2022-09-09T02:50:23;11.10;;;9.43;;
52516;SDS011;59374;53.210;5.726;2022-09-09T02:52:57;13.40;;;8.95;;
52516;SDS011;59374;53.210;5.726;2022-09-09T02:58:05;13.50;;;8.18;;
52516;SDS011;59374;53.210;5.726;2022-09-09T03:00:36;12.02;;;6.95;;
52516;SDS011;59374;53.210;5.726;2022-09-09T03:03:06;17.02;;;9.63;;
52516;SDS011;59374;53.210;5.726;2022-09-09T03:05:33;13.00;;;8.25;;
52516;SDS011;59374;53.210;5.726;2022-09-09T03:08:00;8.98;;;7.35;;
52516;SDS011;59374;53.210;5.726;2022-09-09T03:10:27;10.93;;;8.88;;
52516;SDS011;59374;53.210;5.726;2022-09-09T03:12:52;12.45;;;8.27;;
52516;SDS011;59374;53.210;5.726;2022-09-09T03:15:18;13.45;;;8.52;;
52516;SDS011;59374;53.210;5.726;2022-09-09T03:17:44;12.20;;;8.23;;
52516;SDS011;59374;53.210;5.726;2022-09-09T03:20:09;11.57;;;8.27;;
52516;SDS011;59374;53.210;5.726;2022-09-09T03:22:35;13.02;;;8.20;;
52516;SDS011;59374;53.210;5.726;2022-09-09T03:27:27;14.05;;;8.85;;
52516;SDS011;59374;53.210;5.726;2022-09-09T03:29:53;14.20;;;9.55;;
52516;SDS011;59374;53.210;5.726;2022-09-09T03:34:47;16.27;;;9.18;;
52516;SDS011;59374;53.210;5.726;2022-09-09T03:37:14;12.75;;;9.35;;
52516;SDS011;59374;53.210;5.726;2022-09-09T03:39:40;18.30;;;9.93;;
52516;SDS011;59374;53.210;5.726;2022-09-09T03:44:31;15.82;;;10.20;;
52516;SDS011;59374;53.210;5.726;2022-09-09T03:46:57;14.40;;;8.68;;
52516;SDS011;59374;53.210;5.726;2022-09-09T03:49:25;12.60;;;9.07;;
52516;SDS011;59374;53.210;5.726;2022-09-09T03:51:53;10.98;;;8.40;;
52516;SDS011;59374;53.210;5.726;2022-09-09T03:54:20;12.18;;;8.35;;
52516;SDS011;59374;53.210;5.726;2022-09-09T03:56:45;11.63;;;8.93;;
52516;SDS011;59374;53.210;5.726;2022-09-09T03:59:11;12.13;;;8.50;;
52516;SDS011;59374;53.210;5.726;2022-09-09T04:01:36;10.65;;;7.90;;
52516;SDS011;59374;53.210;5.726;2022-09-09T04:04:02;10.73;;;8.10;;
52516;SDS011;59374;53.210;5.726;2022-09-09T04:06:28;10.82;;;7.13;;
52516;SDS011;59374;53.210;5.726;2022-09-09T04:08:54;8.95;;;7.60;;
52516;SDS011;59374;53.210;5.726;2022-09-09T04:11:20;14.57;;;8.18;;
52516;SDS011;59374;53.210;5.726;2022-09-09T04:13:46;7.75;;;6.38;;
52516;SDS011;59374;53.210;5.726;2022-09-09T04:16:12;9.52;;;7.30;;
52516;SDS011;59374;53.210;5.726;2022-09-09T04:18:38;12.32;;;7.45;;
52516;SDS011;59374;53.210;5.726;2022-09-09T04:21:04;10.93;;;7.53;;
52516;SDS011;59374;53.210;5.726;2022-09-09T04:23:32;9.57;;;6.85;;
52516;SDS011;59374;53.210;5.726;2022-09-09T04:25:59;11.70;;;7.53;;
52516;SDS011;59374;53.210;5.726;2022-09-09T04:28:27;9.38;;;6.55;;
52516;SDS011;59374;53.210;5.726;2022-09-09T04:30:54;9.00;;;7.28;;
52516;SDS011;59374;53.210;5.726;2022-09-09T04:33:22;11.30;;;6.90;;
52516;SDS011;59374;53.210;5.726;2022-09-09T04:35:50;8.85;;;6.50;;
52516;SDS011;59374;53.210;5.726;2022-09-09T04:38:19;14.50;;;7.47;;
52516;SDS011;59374;53.210;5.726;2022-09-09T04:40:48;9.20;;;6.45;;
52516;SDS011;59374;53.210;5.726;2022-09-09T04:43:16;12.85;;;7.35;;
52516;SDS011;59374;53.210;5.726;2022-09-09T04:45:42;10.82;;;7.00;;
52516;SDS011;59374;53.210;5.726;2022-09-09T04:48:08;9.95;;;6.80;;
52516;SDS011;59374;53.210;5.726;2022-09-09T04:50:34;13.25;;;6.68;;
52516;SDS011;59374;53.210;5.726;2022-09-09T04:53:04;12.13;;;6.72;;
52516;SDS011;59374;53.210;5.726;2022-09-09T04:55:30;9.75;;;6.78;;
52516;SDS011;59374;53.210;5.726;2022-09-09T04:57:56;10.18;;;6.20;;
52516;SDS011;59374;53.210;5.726;2022-09-09T05:00:22;9.10;;;5.82;;
52516;SDS011;59374;53.210;5.726;2022-09-09T05:02:51;9.90;;;6.25;;
52516;SDS011;59374;53.210;5.726;2022-09-09T05:07:43;8.60;;;5.95;;
52516;SDS011;59374;53.210;5.726;2022-09-09T05:10:09;10.52;;;6.05;;
52516;SDS011;59374;53.210;5.726;2022-09-09T05:12:35;10.32;;;6.88;;
52516;SDS011;59374;53.210;5.726;2022-09-09T05:17:27;12.38;;;6.20;;
52516;SDS011;59374;53.210;5.726;2022-09-09T05:19:52;10.70;;;6.38;;
52516;SDS011;59374;53.210;5.726;2022-09-09T05:22:19;11.77;;;7.35;;
52516;SDS011;59374;53.210;5.726;2022-09-09T05:24:45;11.65;;;6.80;;
52516;SDS011;59374;53.210;5.726;2022-09-09T05:29:37;9.73;;;6.18;;
52516;SDS011;59374;53.210;5.726;2022-09-09T05:32:03;11.00;;;6.50;;
52516;SDS011;59374;53.210;5.726;2022-09-09T05:34:29;11.88;;;6.88;;
52516;SDS011;59374;53.210;5.726;2022-09-09T05:39:20;11.23;;;6.75;;
52516;SDS011;59374;53.210;5.726;2022-09-09T05:44:11;12.63;;;7.68;;
52516;SDS011;59374;53.210;5.726;2022-09-09T05:46:38;11.32;;;6.35;;
52516;SDS011;59374;53.210;5.726;2022-09-09T05:49:04;9.05;;;6.40;;
52516;SDS011;59374;53.210;5.726;2022-09-09T05:51:31;12.05;;;6.85;;
52516;SDS011;59374;53.210;5.726;2022-09-09T05:56:28;15.90;;;7.43;;
52516;SDS011;59374;53.210;5.726;2022-09-09T05:58:55;15.85;;;8.85;;
52516;SDS011;59374;53.210;5.726;2022-09-09T06:01:22;13.65;;;8.93;;
52516;SDS011;59374;53.210;5.726;2022-09-09T06:03:50;12.68;;;8.65;;
52516;SDS011;59374;53.210;5.726;2022-09-09T06:06:17;14.95;;;8.40;;
52516;SDS011;59374;53.210;5.726;2022-09-09T06:08:50;13.15;;;8.43;;
52516;SDS011;59374;53.210;5.726;2022-09-09T06:11:18;11.95;;;8.38;;
52516;SDS011;59374;53.210;5.726;2022-09-09T06:13:48;11.05;;;8.00;;
52516;SDS011;59374;53.210;5.726;2022-09-09T06:16:17;14.40;;;8.77;;
52516;SDS011;59374;53.210;5.726;2022-09-09T06:18:44;12.90;;;9.57;;
52516;SDS011;59374;53.210;5.726;2022-09-09T06:23:55;13.50;;;9.45;;
52516;SDS011;59374;53.210;5.726;2022-09-09T06:28:48;14.38;;;9.23;;
52516;SDS011;59374;53.210;5.726;2022-09-09T06:31:16;12.23;;;8.75;;
52516;SDS011;59374;53.210;5.726;2022-09-09T06:33:46;14.23;;;9.45;;
52516;SDS011;59374;53.210;5.726;2022-09-09T06:36:13;11.77;;;9.10;;
52516;SDS011;59374;53.210;5.726;2022-09-09T06:38:59;12.85;;;8.32;;
52516;SDS011;59374;53.210;5.726;2022-09-09T06:41:26;11.98;;;8.55;;
52516;SDS011;59374;53.210;5.726;2022-09-09T06:43:53;11.82;;;7.40;;
52516;SDS011;59374;53.210;5.726;2022-09-09T06:46:21;12.85;;;8.52;;
52516;SDS011;59374;53.210;5.726;2022-09-09T06:48:48;11.00;;;7.45;;
52516;SDS011;59374;53.210;5.726;2022-09-09T06:53:44;10.88;;;7.22;;
52516;SDS011;59374;53.210;5.726;2022-09-09T06:58:56;12.00;;;7.57;;
52516;SDS011;59374;53.210;5.726;2022-09-09T07:01:27;9.80;;;6.88;;
52516;SDS011;59374;53.210;5.726;2022-09-09T07:03:55;11.63;;;7.20;;
52516;SDS011;59374;53.210;5.726;2022-09-09T07:06:27;9.68;;;6.97;;
52516;SDS011;59374;53.210;5.726;2022-09-09T07:08:55;14.10;;;7.60;;
52516;SDS011;59374;53.210;5.726;2022-09-09T07:11:23;10.60;;;7.68;;
52516;SDS011;59374;53.210;5.726;2022-09-09T07:13:53;10.52;;;7.45;;
52516;SDS011;59374;53.210;5.726;2022-09-09T07:16:20;9.70;;;7.30;;
52516;SDS011;59374;53.210;5.726;2022-09-09T07:18:50;10.32;;;6.93;;
52516;SDS011;59374;53.210;5.726;2022-09-09T07:21:22;12.00;;;6.80;;
52516;SDS011;59374;53.210;5.726;2022-09-09T07:23:49;11.02;;;7.32;;
52516;SDS011;59374;53.210;5.726;2022-09-09T07:26:19;9.77;;;6.45;;
52516;SDS011;59374;53.210;5.726;2022-09-09T07:28:47;9.93;;;6.90;;
52516;SDS011;59374;53.210;5.726;2022-09-09T07:31:14;9.77;;;6.60;;
52516;SDS011;59374;53.210;5.726;2022-09-09T07:33:42;10.27;;;6.75;;
52516;SDS011;59374;53.210;5.726;2022-09-09T07:36:10;10.52;;;6.13;;
52516;SDS011;59374;53.210;5.726;2022-09-09T07:38:45;11.02;;;6.50;;
52516;SDS011;59374;53.210;5.726;2022-09-09T07:41:18;13.75;;;6.40;;
52516;SDS011;59374;53.210;5.726;2022-09-09T07:43:47;11.27;;;7.18;;
52516;SDS011;59374;53.210;5.726;2022-09-09T07:46:14;10.10;;;6.70;;
52516;SDS011;59374;53.210;5.726;2022-09-09T07:48:44;9.63;;;6.57;;
52516;SDS011;59374;53.210;5.726;2022-09-09T07:51:12;9.73;;;5.95;;
52516;SDS011;59374;53.210;5.726;2022-09-09T07:53:42;10.73;;;5.70;;
52516;SDS011;59374;53.210;5.726;2022-09-09T07:56:11;10.23;;;6.68;;
52516;SDS011;59374;53.210;5.726;2022-09-09T07:58:40;10.43;;;6.70;;
52516;SDS011;59374;53.210;5.726;2022-09-09T08:01:13;9.32;;;5.70;;
52516;SDS011;59374;53.210;5.726;2022-09-09T08:03:47;9.68;;;5.93;;
52516;SDS011;59374;53.210;5.726;2022-09-09T08:06:23;7.80;;;5.97;;
52516;SDS011;59374;53.210;5.726;2022-09-09T08:08:50;12.20;;;6.53;;
52516;SDS011;59374;53.210;5.726;2022-09-09T08:11:16;11.20;;;6.75;;
52516;SDS011;59374;53.210;5.726;2022-09-09T08:13:43;9.60;;;6.40;;
52516;SDS011;59374;53.210;5.726;2022-09-09T08:16:10;9.57;;;5.43;;
52516;SDS011;59374;53.210;5.726;2022-09-09T08:18:37;10.13;;;5.97;;
52516;SDS011;59374;53.210;5.726;2022-09-09T08:23:34;10.65;;;5.57;;
52516;SDS011;59374;53.210;5.726;2022-09-09T08:26:04;10.15;;;5.95;;
52516;SDS011;59374;53.210;5.726;2022-09-09T08:28:35;9.32;;;5.65;;
52516;SDS011;59374;53.210;5.726;2022-09-09T08:31:45;10.75;;;5.22;;
52516;SDS011;59374;53.210;5.726;2022-09-09T08:33:53;9.18;;;5.43;;
52516;SDS011;59374;53.210;5.726;2022-09-09T08:36:20;11.23;;;5.63;;
52516;SDS011;59374;53.210;5.726;2022-09-09T08:38:48;8.10;;;5.25;;
52516;SDS011;59374;53.210;5.726;2022-09-09T08:43:50;10.25;;;5.97;;
52516;SDS011;59374;53.210;5.726;2022-09-09T08:49:38;10.20;;;5.18;;
52516;SDS011;59374;53.210;5.726;2022-09-09T08:52:31;7.82;;;4.85;;
52516;SDS011;59374;53.210;5.726;2022-09-09T08:57:47;8.30;;;4.80;;
52516;SDS011;59374;53.210;5.726;2022-09-09T09:00:16;9.07;;;4.93;;
52516;SDS011;59374;53.210;5.726;2022-09-09T09:02:44;9.70;;;5.53;;
52516;SDS011;59374;53.210;5.726;2022-09-09T09:10:25;8.30;;;4.60;;
52516;SDS011;59374;53.210;5.726;2022-09-09T09:13:15;9.43;;;5.13;;
52516;SDS011;59374;53.210;5.726;2022-09-09T09:15:51;8.60;;;4.50;;
52516;SDS011;59374;53.210;5.726;2022-09-09T09:18:21;6.72;;;4.43;;
52516;SDS011;59374;53.210;5.726;2022-09-09T09:20:54;6.97;;;5.03;;
52516;SDS011;59374;53.210;5.726;2022-09-09T09:23:40;11.43;;;5.43;;
52516;SDS011;59374;53.210;5.726;2022-09-09T09:26:12;9.77;;;5.10;;
52516;SDS011;59374;53.210;5.726;2022-09-09T09:28:38;9.57;;;4.47;;
52516;SDS011;59374;53.210;5.726;2022-09-09T09:31:06;7.95;;;4.53;;
52516;SDS011;59374;53.210;5.726;2022-09-09T09:36:11;7.38;;;4.20;;
52516;SDS011;59374;53.210;5.726;2022-09-09T09:38:40;9.57;;;3.85;;
52516;SDS011;59374;53.210;5.726;2022-09-09T09:41:34;6.50;;;4.07;;
52516;SDS011;59374;53.210;5.726;2022-09-09T09:44:03;5.53;;;3.70;;
52516;SDS011;59374;53.210;5.726;2022-09-09T09:46:30;7.88;;;3.50;;
52516;SDS011;59374;53.210;5.726;2022-09-09T09:49:00;9.38;;;3.22;;
52516;SDS011;59374;53.210;5.726;2022-09-09T09:51:28;7.68;;;3.15;;
52516;SDS011;59374;53.210;5.726;2022-09-09T09:54:08;7.35;;;3.33;;
52516;SDS011;59374;53.210;5.726;2022-09-09T09:56:34;7.18;;;3.08;;
52516;SDS011;59374;53.210;5.726;2022-09-09T09:59:01;5.68;;;3.17;;
52516;SDS011;59374;53.210;5.726;2022-09-09T10:03:56;7.40;;;3.17;;
52516;SDS011;59374;53.210;5.726;2022-09-09T10:06:33;7.13;;;2.72;;
52516;SDS011;59374;53.210;5.726;2022-09-09T10:09:03;6.60;;;2.92;;
52516;SDS011;59374;53.210;5.726;2022-09-09T10:14:20;8.27;;;3.20;;
52516;SDS011;59374;53.210;5.726;2022-09-09T10:16:53;8.75;;;3.67;;
52516;SDS011;59374;53.210;5.726;2022-09-09T10:27:27;9.32;;;2.58;;
52516;SDS011;59374;53.210;5.726;2022-09-09T10:30:22;6.30;;;2.88;;
52516;SDS011;59374;53.210;5.726;2022-09-09T10:41:13;11.02;;;2.78;;
52516;SDS011;59374;53.210;5.726;2022-09-09T10:46:31;8.52;;;2.78;;
52516;SDS011;59374;53.210;5.726;2022-09-09T10:57:17;5.70;;;2.13;;
52516;SDS011;59374;53.210;5.726;2022-09-09T11:00:03;6.28;;;2.10;;
52516;SDS011;59374;53.210;5.726;2022-09-09T11:02:40;7.00;;;2.30;;
52516;SDS011;59374;53.210;5.726;2022-09-09T11:12:50;7.05;;;2.35;;
52516;SDS011;59374;53.210;5.726;2022-09-09T11:15:22;6.32;;;2.30;;
52516;SDS011;59374;53.210;5.726;2022-09-09T11:17:54;7.57;;;2.50;;
52516;SDS011;59374;53.210;5.726;2022-09-09T11:20:23;6.68;;;2.10;;
52516;SDS011;59374;53.210;5.726;2022-09-09T11:22:52;4.75;;;2.00;;
52516;SDS011;59374;53.210;5.726;2022-09-09T11:25:33;5.78;;;2.20;;
52516;SDS011;59374;53.210;5.726;2022-09-09T11:33:35;5.45;;;1.92;;
52516;SDS011;59374;53.210;5.726;2022-09-09T11:41:35;5.50;;;2.10;;
52516;SDS011;59374;53.210;5.726;2022-09-09T11:44:09;6.68;;;2.35;;
52516;SDS011;59374;53.210;5.726;2022-09-09T11:46:38;6.07;;;1.92;;
52516;SDS011;59374;53.210;5.726;2022-09-09T11:49:21;4.30;;;2.10;;
52516;SDS011;59374;53.210;5.726;2022-09-09T11:51:50;7.00;;;1.80;;
52516;SDS011;59374;53.210;5.726;2022-09-09T11:54:27;4.97;;;1.90;;
52516;SDS011;59374;53.210;5.726;2022-09-09T11:56:55;5.88;;;2.05;;
52516;SDS011;59374;53.210;5.726;2022-09-09T11:59:31;6.72;;;2.08;;
52516;SDS011;59374;53.210;5.726;2022-09-09T12:02:20;5.80;;;2.20;;
52516;SDS011;59374;53.210;5.726;2022-09-09T12:05:09;6.95;;;2.13;;
52516;SDS011;59374;53.210;5.726;2022-09-09T12:07:38;5.60;;;2.42;;
52516;SDS011;59374;53.210;5.726;2022-09-09T12:10:27;8.63;;;2.42;;
52516;SDS011;59374;53.210;5.726;2022-09-09T12:15:46;6.68;;;2.58;;
52516;SDS011;59374;53.210;5.726;2022-09-09T12:21:21;6.32;;;2.00;;
52516;SDS011;59374;53.210;5.726;2022-09-09T12:23:58;6.55;;;2.40;;
52516;SDS011;59374;53.210;5.726;2022-09-09T12:26:32;5.68;;;2.60;;
52516;SDS011;59374;53.210;5.726;2022-09-09T12:37:04;6.30;;;2.30;;
52516;SDS011;59374;53.210;5.726;2022-09-09T12:39:58;4.78;;;2.25;;
52516;SDS011;59374;53.210;5.726;2022-09-09T12:42:27;5.53;;;2.40;;
52516;SDS011;59374;53.210;5.726;2022-09-09T12:44:57;4.70;;;2.25;;
52516;SDS011;59374;53.210;5.726;2022-09-09T12:47:38;6.25;;;2.40;;
52516;SDS011;59374;53.210;5.726;2022-09-09T12:50:19;6.57;;;2.90;;
52516;SDS011;59374;53.210;5.726;2022-09-09T12:52:48;8.98;;;3.00;;
52516;SDS011;59374;53.210;5.726;2022-09-09T12:55:18;6.55;;;2.33;;
52516;SDS011;59374;53.210;5.726;2022-09-09T12:57:46;6.00;;;2.40;;
52516;SDS011;59374;53.210;5.726;2022-09-09T13:00:18;6.63;;;2.60;;
52516;SDS011;59374;53.210;5.726;2022-09-09T13:02:48;6.63;;;2.35;;
52516;SDS011;59374;53.210;5.726;2022-09-09T13:05:23;5.82;;;1.90;;
52516;SDS011;59374;53.210;5.726;2022-09-09T13:08:05;4.30;;;2.03;;
52516;SDS011;59374;53.210;5.726;2022-09-09T13:10:35;5.43;;;2.08;;
52516;SDS011;59374;53.210;5.726;2022-09-09T13:13:13;6.80;;;2.30;;
52516;SDS011;59374;53.210;5.726;2022-09-09T13:18:13;5.57;;;2.40;;
52516;SDS011;59374;53.210;5.726;2022-09-09T13:20:45;5.25;;;2.20;;
52516;SDS011;59374;53.210;5.726;2022-09-09T13:23:12;3.50;;;1.88;;
52516;SDS011;59374;53.210;5.726;2022-09-09T13:25:38;5.78;;;1.83;;
52516;SDS011;59374;53.210;5.726;2022-09-09T13:28:05;7.05;;;2.15;;
52516;SDS011;59374;53.210;5.726;2022-09-09T13:30:54;6.55;;;2.22;;
52516;SDS011;59374;53.210;5.726;2022-09-09T13:33:38;5.47;;;2.28;;
52516;SDS011;59374;53.210;5.726;2022-09-09T13:36:05;5.68;;;2.45;;
52516;SDS011;59374;53.210;5.726;2022-09-09T13:41:11;6.75;;;1.83;;
52516;SDS011;59374;53.210;5.726;2022-09-09T13:43:46;5.03;;;2.03;;
52516;SDS011;59374;53.210;5.726;2022-09-09T13:48:58;5.53;;;2.28;;
52516;SDS011;59374;53.210;5.726;2022-09-09T13:51:44;5.63;;;2.42;;
52516;SDS011;59374;53.210;5.726;2022-09-09T13:54:12;3.70;;;1.90;;
52516;SDS011;59374;53.210;5.726;2022-09-09T13:56:40;5.32;;;1.63;;
52516;SDS011;59374;53.210;5.726;2022-09-09T13:59:09;4.30;;;1.45;;
52516;SDS011;59374;53.210;5.726;2022-09-09T14:01:37;2.92;;;1.40;;
52516;SDS011;59374;53.210;5.726;2022-09-09T14:04:03;4.65;;;2.25;;
52516;SDS011;59374;53.210;5.726;2022-09-09T14:06:31;5.43;;;2.30;;
52516;SDS011;59374;53.210;5.726;2022-09-09T14:08:57;4.35;;;2.45;;
52516;SDS011;59374;53.210;5.726;2022-09-09T14:11:23;4.28;;;2.10;;
52516;SDS011;59374;53.210;5.726;2022-09-09T14:13:49;9.45;;;2.78;;
52516;SDS011;59374;53.210;5.726;2022-09-09T14:16:18;4.25;;;2.15;;
52516;SDS011;59374;53.210;5.726;2022-09-09T14:18:45;8.80;;;2.40;;
52516;SDS011;59374;53.210;5.726;2022-09-09T14:21:11;5.88;;;2.30;;
52516;SDS011;59374;53.210;5.726;2022-09-09T14:23:37;6.60;;;2.20;;
52516;SDS011;59374;53.210;5.726;2022-09-09T14:26:04;6.10;;;2.20;;
52516;SDS011;59374;53.210;5.726;2022-09-09T14:28:31;3.58;;;1.63;;
52516;SDS011;59374;53.210;5.726;2022-09-09T14:31:01;5.22;;;1.48;;
52516;SDS011;59374;53.210;5.726;2022-09-09T14:33:28;4.32;;;1.73;;
52516;SDS011;59374;53.210;5.726;2022-09-09T14:35:58;4.43;;;1.73;;
52516;SDS011;59374;53.210;5.726;2022-09-09T14:38:28;4.50;;;1.60;;
52516;SDS011;59374;53.210;5.726;2022-09-09T14:40:54;3.42;;;1.30;;
52516;SDS011;59374;53.210;5.726;2022-09-09T14:43:21;4.55;;;1.55;;
52516;SDS011;59374;53.210;5.726;2022-09-09T14:45:47;3.83;;;1.42;;
52516;SDS011;59374;53.210;5.726;2022-09-09T14:48:16;4.18;;;2.00;;
52516;SDS011;59374;53.210;5.726;2022-09-09T14:50:42;4.40;;;1.88;;
52516;SDS011;59374;53.210;5.726;2022-09-09T14:53:07;4.85;;;1.70;;
52516;SDS011;59374;53.210;5.726;2022-09-09T14:55:35;17.17;;;2.42;;
52516;SDS011;59374;53.210;5.726;2022-09-09T14:58:01;8.23;;;2.63;;
52516;SDS011;59374;53.210;5.726;2022-09-09T15:00:26;5.05;;;2.00;;
52516;SDS011;59374;53.210;5.726;2022-09-09T15:02:53;4.25;;;2.00;;
52516;SDS011;59374;53.210;5.726;2022-09-09T15:05:18;4.70;;;2.00;;
52516;SDS011;59374;53.210;5.726;2022-09-09T15:07:44;4.05;;;1.70;;
52516;SDS011;59374;53.210;5.726;2022-09-09T15:10:10;7.75;;;2.30;;
52516;SDS011;59374;53.210;5.726;2022-09-09T15:12:36;3.50;;;2.10;;
52516;SDS011;59374;53.210;5.726;2022-09-09T15:15:03;4.38;;;2.05;;
52516;SDS011;59374;53.210;5.726;2022-09-09T15:17:29;3.53;;;1.85;;
52516;SDS011;59374;53.210;5.726;2022-09-09T15:19:56;4.20;;;1.70;;
52516;SDS011;59374;53.210;5.726;2022-09-09T15:22:22;3.72;;;2.10;;
52516;SDS011;59374;53.210;5.726;2022-09-09T15:24:49;4.40;;;1.88;;
52516;SDS011;59374;53.210;5.726;2022-09-09T15:27:15;5.53;;;2.00;;
52516;SDS011;59374;53.210;5.726;2022-09-09T15:29:41;3.30;;;1.83;;
52516;SDS011;59374;53.210;5.726;2022-09-09T15:32:06;4.93;;;2.20;;
52516;SDS011;59374;53.210;5.726;2022-09-09T15:34:33;7.65;;;2.65;;
52516;SDS011;59374;53.210;5.726;2022-09-09T15:36:58;8.85;;;2.75;;
52516;SDS011;59374;53.210;5.726;2022-09-09T15:39:27;6.95;;;2.80;;
52516;SDS011;59374;53.210;5.726;2022-09-09T15:41:53;9.25;;;2.90;;
52516;SDS011;59374;53.210;5.726;2022-09-09T15:44:18;13.93;;;3.15;;
52516;SDS011;59374;53.210;5.726;2022-09-09T15:46:45;9.07;;;3.58;;
52516;SDS011;59374;53.210;5.726;2022-09-09T15:49:16;6.80;;;2.63;;
52516;SDS011;59374;53.210;5.726;2022-09-09T15:51:46;6.03;;;2.63;;
52516;SDS011;59374;53.210;5.726;2022-09-09T15:54:17;6.47;;;2.72;;
52516;SDS011;59374;53.210;5.726;2022-09-09T15:56:45;9.13;;;2.80;;
52516;SDS011;59374;53.210;5.726;2022-09-09T15:59:13;8.45;;;2.85;;
52516;SDS011;59374;53.210;5.726;2022-09-09T16:01:39;8.95;;;2.97;;
52516;SDS011;59374;53.210;5.726;2022-09-09T16:04:07;5.15;;;2.97;;
52516;SDS011;59374;53.210;5.726;2022-09-09T16:06:33;9.55;;;3.70;;
52516;SDS011;59374;53.210;5.726;2022-09-09T16:08:59;6.75;;;2.90;;
52516;SDS011;59374;53.210;5.726;2022-09-09T16:11:31;6.13;;;2.92;;
52516;SDS011;59374;53.210;5.726;2022-09-09T16:13:59;7.18;;;3.05;;
52516;SDS011;59374;53.210;5.726;2022-09-09T16:16:27;5.93;;;3.17;;
52516;SDS011;59374;53.210;5.726;2022-09-09T16:18:55;5.97;;;2.83;;
52516;SDS011;59374;53.210;5.726;2022-09-09T16:21:23;7.13;;;2.78;;
52516;SDS011;59374;53.210;5.726;2022-09-09T16:23:57;6.63;;;3.13;;
52516;SDS011;59374;53.210;5.726;2022-09-09T16:26:25;5.95;;;3.10;;
52516;SDS011;59374;53.210;5.726;2022-09-09T16:28:50;5.55;;;3.00;;
52516;SDS011;59374;53.210;5.726;2022-09-09T16:31:19;4.38;;;1.80;;
52516;SDS011;59374;53.210;5.726;2022-09-09T16:33:47;2.95;;;1.83;;
52516;SDS011;59374;53.210;5.726;2022-09-09T16:36:13;2.67;;;1.20;;
52516;SDS011;59374;53.210;5.726;2022-09-09T16:38:41;8.73;;;2.10;;
52516;SDS011;59374;53.210;5.726;2022-09-09T16:41:08;7.20;;;3.63;;
52516;SDS011;59374;53.210;5.726;2022-09-09T16:43:35;3.63;;;1.70;;
52516;SDS011;59374;53.210;5.726;2022-09-09T16:46:02;2.88;;;1.45;;
52516;SDS011;59374;53.210;5.726;2022-09-09T16:48:32;3.92;;;1.50;;
52516;SDS011;59374;53.210;5.726;2022-09-09T16:51:11;2.97;;;1.02;;
52516;SDS011;59374;53.210;5.726;2022-09-09T16:53:39;3.60;;;1.02;;
52516;SDS011;59374;53.210;5.726;2022-09-09T16:56:08;2.38;;;1.20;;
52516;SDS011;59374;53.210;5.726;2022-09-09T16:58:35;1.70;;;0.98;;
52516;SDS011;59374;53.210;5.726;2022-09-09T17:01:01;2.60;;;1.20;;
52516;SDS011;59374;53.210;5.726;2022-09-09T17:03:28;2.58;;;1.23;;
52516;SDS011;59374;53.210;5.726;2022-09-09T17:05:54;4.60;;;1.52;;
52516;SDS011;59374;53.210;5.726;2022-09-09T17:08:22;1.85;;;1.13;;
52516;SDS011;59374;53.210;5.726;2022-09-09T17:10:51;3.72;;;1.45;;
52516;SDS011;59374;53.210;5.726;2022-09-09T17:13:17;5.10;;;1.60;;
52516;SDS011;59374;53.210;5.726;2022-09-09T17:15:44;8.60;;;2.20;;
52516;SDS011;59374;53.210;5.726;2022-09-09T17:18:11;4.60;;;1.88;;
52516;SDS011;59374;53.210;5.726;2022-09-09T17:20:38;5.30;;;1.52;;
52516;SDS011;59374;53.210;5.726;2022-09-09T17:23:08;3.53;;;1.70;;
52516;SDS011;59374;53.210;5.726;2022-09-09T17:25:35;3.72;;;1.52;;
52516;SDS011;59374;53.210;5.726;2022-09-09T17:28:01;3.15;;;1.55;;
52516;SDS011;59374;53.210;5.726;2022-09-09T17:30:29;4.35;;;1.60;;
52516;SDS011;59374;53.210;5.726;2022-09-09T17:32:58;4.20;;;1.85;;
52516;SDS011;59374;53.210;5.726;2022-09-09T17:35:24;4.75;;;1.67;;
52516;SDS011;59374;53.210;5.726;2022-09-09T17:37:52;3.58;;;1.65;;
52516;SDS011;59374;53.210;5.726;2022-09-09T17:40:19;3.92;;;1.92;;
52516;SDS011;59374;53.210;5.726;2022-09-09T17:42:45;4.70;;;2.10;;
52516;SDS011;59374;53.210;5.726;2022-09-09T17:45:12;4.57;;;2.08;;
52516;SDS011;59374;53.210;5.726;2022-09-09T17:47:38;3.60;;;2.10;;
52516;SDS011;59374;53.210;5.726;2022-09-09T17:50:05;4.18;;;2.40;;